Time;durP1;ratioP1;P1;durP2;ratioP2;P2;SDS_P1;SDS_P2;PMS_P1;PMS_P2;Temp;Humidity;BMP_temperature;BMP_pressure;BME280_temperature;BME280_humidity;BME280_pressure;Samples;Min_cycle;Max_cycle;Signal;HPM_P1;HPM_P2
2023/09/06 00:01:24;;;;;;;4.53;2.65;;;21.00;99.40;;;;;;5057029;28;20470;-75
2023/09/06 00:03:50;;;;;;;3.80;2.88;;;21.10;99.40;;;;;;5058643;28;20090;-75
2023/09/06 00:06:16;;;;;;;4.18;3.00;;;21.10;99.40;;;;;;5051098;28;20025;-75
2023/09/06 00:08:42;;;;;;;3.25;2.42;;;21.10;99.30;;;;;;5050310;28;20029;-74
2023/09/06 00:11:07;;;;;;;3.80;2.85;;;21.10;99.30;;;;;;5051684;28;20036;-75
2023/09/06 00:13:34;;;;;;;3.88;2.90;;;21.00;99.30;;;;;;5051553;28;20473;-75
2023/09/06 00:16:01;;;;;;;4.63;3.15;;;21.00;99.30;;;;;;5052155;28;20508;-75
2023/09/06 00:18:27;;;;;;;5.45;3.17;;;21.00;99.40;;;;;;5050036;28;20029;-75
2023/09/06 00:20:53;;;;;;;3.17;2.70;;;21.00;99.40;;;;;;5052000;28;20029;-75
2023/09/06 00:23:20;;;;;;;2.80;2.17;;;21.00;99.40;;;;;;5050948;28;20036;-75
2023/09/06 00:25:46;;;;;;;4.05;2.95;;;20.90;99.30;;;;;;5051450;28;20111;-75
2023/09/06 00:28:15;;;;;;;5.75;2.67;;;21.00;99.40;;;;;;5051841;28;20063;-75
2023/09/06 00:30:44;;;;;;;3.25;2.70;;;20.90;99.40;;;;;;5051198;28;20051;-74
2023/09/06 00:33:10;;;;;;;3.38;2.88;;;20.80;99.40;;;;;;5052224;28;20017;-74
2023/09/06 00:35:38;;;;;;;3.65;2.70;;;20.80;99.40;;;;;;5050885;28;20401;-74
2023/09/06 00:38:07;;;;;;;4.28;3.38;;;20.80;99.50;;;;;;5051324;28;20543;-74
2023/09/06 00:40:36;;;;;;;2.95;2.40;;;20.80;99.40;;;;;;5051249;28;20032;-74
2023/09/06 00:43:06;;;;;;;3.22;2.53;;;20.80;99.40;;;;;;5051346;28;20032;-74
2023/09/06 00:45:38;;;;;;;3.00;2.80;;;20.70;99.40;;;;;;5050449;28;20031;-74
2023/09/06 00:48:06;;;;;;;4.32;2.22;;;20.70;99.40;;;;;;5042964;28;20058;-74
2023/09/06 00:50:34;;;;;;;4.18;2.78;;;20.70;99.40;;;;;;5061067;28;20032;-74
2023/09/06 00:53:00;;;;;;;5.10;3.03;;;20.60;99.50;;;;;;5057162;28;20020;-74
2023/09/06 00:55:26;;;;;;;4.22;3.55;;;20.60;99.50;;;;;;5069540;28;20049;-74
2023/09/06 00:57:52;;;;;;;3.47;3.17;;;20.60;99.50;;;;;;5064858;28;20036;-74
2023/09/06 01:00:19;;;;;;;4.28;3.17;;;20.50;99.50;;;;;;5069273;28;20032;-74
2023/09/06 01:02:47;;;;;;;4.05;3.63;;;20.50;99.60;;;;;;5067535;28;20017;-74
2023/09/06 01:05:16;;;;;;;4.50;3.30;;;20.50;99.60;;;;;;5069503;28;20379;-74
2023/09/06 01:07:46;;;;;;;3.78;3.20;;;20.50;99.70;;;;;;5068677;28;20362;-75
2023/09/06 01:10:12;;;;;;;3.60;3.30;;;20.40;99.70;;;;;;5069594;28;20028;-74
2023/09/06 01:12:37;;;;;;;4.68;2.53;;;20.30;99.80;;;;;;5069146;28;20031;-74
2023/09/06 01:15:04;;;;;;;3.33;3.03;;;20.30;99.80;;;;;;5069404;28;20031;-74
2023/09/06 01:17:31;;;;;;;3.58;3.15;;;20.30;99.90;;;;;;5068788;28;20024;-74
2023/09/06 01:20:18;;;;;;;7.20;3.10;;;20.30;99.90;;;;;;5069873;28;20054;-74
2023/09/06 01:22:53;;;;;;;3.00;2.63;;;20.20;99.90;;;;;;5041656;28;20032;-74
2023/09/06 01:25:19;;;;;;;4.25;3.20;;;20.10;99.90;;;;;;5058297;28;20489;-74
2023/09/06 01:27:45;;;;;;;4.80;3.05;;;20.10;99.90;;;;;;5069763;28;20111;-74
2023/09/06 01:30:11;;;;;;;2.58;2.38;;;20.10;99.90;;;;;;5069199;28;20029;-74
2023/09/06 01:32:37;;;;;;;5.20;2.92;;;20.10;99.90;;;;;;5069316;28;20020;-74
2023/09/06 01:35:06;;;;;;;3.95;2.83;;;20.00;99.90;;;;;;5066381;28;20083;-74
2023/09/06 01:37:32;;;;;;;3.72;3.40;;;20.00;99.90;;;;;;5057118;28;20020;-74
2023/09/06 01:39:58;;;;;;;3.20;2.85;;;20.00;99.90;;;;;;5066296;28;20091;-74
2023/09/06 01:42:23;;;;;;;4.20;3.13;;;19.90;99.90;;;;;;5067196;28;20112;-74
2023/09/06 01:44:49;;;;;;;3.83;3.17;;;19.90;99.90;;;;;;5068494;28;20039;-74
2023/09/06 01:47:15;;;;;;;4.00;2.78;;;19.90;99.90;;;;;;5068108;28;20046;-74
2023/09/06 01:49:40;;;;;;;3.45;3.13;;;19.90;99.90;;;;;;5068713;28;20046;-74
2023/09/06 01:52:06;;;;;;;4.03;3.60;;;19.80;99.90;;;;;;5059980;28;20359;-74
2023/09/06 01:54:31;;;;;;;4.20;3.40;;;19.80;99.90;;;;;;5064766;28;20029;-74
2023/09/06 01:56:57;;;;;;;4.70;3.28;;;19.70;99.90;;;;;;5084983;28;20106;-74
2023/09/06 01:59:23;;;;;;;4.38;3.35;;;19.70;99.90;;;;;;5065832;28;20021;-74
2023/09/06 02:01:54;;;;;;;5.93;3.50;;;19.70;99.90;;;;;;5042449;28;20036;-74
2023/09/06 02:04:20;;;;;;;5.38;3.85;;;19.60;99.90;;;;;;5046616;28;20017;-74
2023/09/06 02:06:46;;;;;;;4.53;3.53;;;19.60;99.90;;;;;;5065749;28;20380;-74
2023/09/06 02:09:11;;;;;;;4.40;3.00;;;19.60;99.90;;;;;;5053717;28;20442;-74
2023/09/06 02:11:37;;;;;;;4.90;3.70;;;19.60;99.90;;;;;;5064967;28;20559;-74
2023/09/06 02:14:02;;;;;;;4.75;3.47;;;19.50;99.90;;;;;;5062265;28;20024;-74
2023/09/06 02:16:30;;;;;;;4.07;3.60;;;19.50;99.90;;;;;;5064659;28;20489;-74
2023/09/06 02:18:55;;;;;;;4.57;3.85;;;19.50;99.90;;;;;;5062555;28;20059;-74
2023/09/06 02:21:21;;;;;;;5.75;3.92;;;19.50;99.90;;;;;;5051670;28;20538;-75
2023/09/06 02:23:46;;;;;;;4.25;3.40;;;19.50;99.90;;;;;;5058812;28;20079;-74
2023/09/06 02:26:12;;;;;;;4.13;3.72;;;19.40;99.90;;;;;;5064971;28;20067;-74
2023/09/06 02:28:37;;;;;;;4.05;3.60;;;19.40;99.90;;;;;;5064647;28;20472;-74
2023/09/06 02:31:04;;;;;;;3.97;3.28;;;19.40;99.90;;;;;;5067172;28;20021;-74
2023/09/06 02:33:29;;;;;;;3.45;3.15;;;19.40;99.90;;;;;;5064415;28;20032;-74
2023/09/06 02:35:55;;;;;;;3.95;2.90;;;19.40;99.90;;;;;;5060778;28;20028;-74
2023/09/06 02:38:20;;;;;;;4.10;3.28;;;19.30;99.90;;;;;;5062036;28;20834;-75
2023/09/06 02:40:46;;;;;;;4.70;3.17;;;19.30;99.90;;;;;;5066923;28;20040;-74
2023/09/06 02:43:13;;;;;;;4.22;3.40;;;19.30;99.90;;;;;;5065566;28;20032;-74
2023/09/06 02:45:39;;;;;;;5.22;4.03;;;19.30;99.90;;;;;;5066990;28;20021;-75
2023/09/06 02:48:15;;;;;;;3.58;3.15;;;19.30;99.90;;;;;;5065498;28;20029;-75
2023/09/06 02:50:41;;;;;;;3.17;2.83;;;19.20;99.90;;;;;;5060208;28;20046;-74
2023/09/06 02:53:26;;;;;;;5.90;3.65;;;19.20;99.90;;;;;;5063796;28;20017;-74
2023/09/06 02:55:53;;;;;;;3.92;3.15;;;19.20;99.90;;;;;;5048467;28;20052;-74
2023/09/06 02:58:26;;;;;;;3.67;3.17;;;19.10;99.90;;;;;;5050707;28;20543;-74
2023/09/06 03:00:57;;;;;;;4.93;3.20;;;19.20;99.90;;;;;;5062728;28;20104;-74
2023/09/06 03:03:27;;;;;;;4.97;3.40;;;19.10;99.90;;;;;;5072085;28;20103;-74
2023/09/06 03:05:56;;;;;;;4.93;3.50;;;19.10;99.90;;;;;;5067752;28;20055;-74
2023/09/06 03:08:25;;;;;;;4.25;3.85;;;19.00;99.90;;;;;;5052193;28;20020;-75
2023/09/06 03:10:52;;;;;;;3.55;3.25;;;19.00;99.90;;;;;;5067305;28;20021;-74
2023/09/06 03:13:20;;;;;;;3.35;3.05;;;19.00;99.90;;;;;;5062015;28;20017;-74
2023/09/06 03:15:46;;;;;;;4.20;3.80;;;19.00;99.90;;;;;;5053384;28;20569;-74
2023/09/06 03:18:11;;;;;;;5.15;3.05;;;19.00;99.90;;;;;;5052547;28;20055;-74
2023/09/06 03:20:44;;;;;;;3.75;3.42;;;19.00;99.90;;;;;;5053036;28;20480;-74
2023/09/06 03:23:17;;;;;;;3.72;3.42;;;19.00;99.90;;;;;;5052362;28;20017;-74
2023/09/06 03:25:49;;;;;;;6.18;4.22;;;18.90;99.90;;;;;;5052745;28;20021;-74
2023/09/06 03:28:18;;;;;;;5.30;3.67;;;18.90;99.90;;;;;;5052535;28;20029;-74
2023/09/06 03:30:44;;;;;;;4.72;3.80;;;18.90;99.90;;;;;;5052397;28;20448;-75
2023/09/06 03:33:10;;;;;;;3.72;3.42;;;18.90;99.90;;;;;;5053259;28;20021;-74
2023/09/06 03:35:36;;;;;;;5.90;3.58;;;18.90;99.90;;;;;;5052118;28;20032;-74
2023/09/06 03:38:10;;;;;;;4.70;3.28;;;18.80;99.90;;;;;;5051959;28;20027;-75
2023/09/06 03:40:36;;;;;;;4.47;3.58;;;18.80;99.90;;;;;;5052410;28;20474;-74
2023/09/06 03:43:14;;;;;;;4.90;3.78;;;18.90;99.90;;;;;;5053275;28;20425;-74
2023/09/06 03:45:44;;;;;;;5.95;3.88;;;18.80;99.90;;;;;;5052521;28;20478;-74
2023/09/06 03:48:10;;;;;;;5.00;4.43;;;18.80;99.90;;;;;;5052803;28;20013;-74
2023/09/06 03:50:37;;;;;;;4.45;4.05;;;18.80;99.90;;;;;;5062313;28;20081;-74
2023/09/06 03:53:04;;;;;;;5.30;4.03;;;18.80;99.90;;;;;;5065586;28;20112;-75
2023/09/06 03:55:32;;;;;;;4.88;4.18;;;18.80;99.90;;;;;;5051627;28;20098;-74
2023/09/06 03:58:04;;;;;;;4.35;3.95;;;18.80;99.90;;;;;;5052180;28;20031;-74
2023/09/06 04:00:31;;;;;;;3.70;3.40;;;18.80;99.90;;;;;;5051663;28;20112;-74
2023/09/06 04:02:57;;;;;;;4.95;4.07;;;18.80;99.90;;;;;;5052169;28;20016;-74
2023/09/06 04:05:28;;;;;;;5.15;4.43;;;18.80;99.90;;;;;;5050167;28;20496;-74
2023/09/06 04:07:55;;;;;;;5.57;4.32;;;18.80;99.90;;;;;;5068522;28;20017;-74
2023/09/06 04:10:23;;;;;;;6.85;4.85;;;18.70;99.90;;;;;;5050041;28;20408;-75
2023/09/06 04:12:50;;;;;;;5.75;3.83;;;18.80;99.90;;;;;;5045498;28;20028;-74
2023/09/06 04:15:21;;;;;;;6.18;3.30;;;18.70;99.90;;;;;;5070027;28;20024;-74
2023/09/06 04:17:48;;;;;;;5.72;3.97;;;18.70;99.90;;;;;;5070593;28;20067;-75
2023/09/06 04:20:19;;;;;;;8.40;4.10;;;18.70;99.90;;;;;;5051097;28;20025;-74
2023/09/06 04:22:46;;;;;;;4.32;3.83;;;18.70;99.90;;;;;;5050950;28;20033;-74
2023/09/06 04:25:16;;;;;;;5.47;4.05;;;18.70;99.90;;;;;;5051590;28;20100;-75
2023/09/06 04:27:45;;;;;;;6.05;4.40;;;18.70;99.90;;;;;;5051435;28;20151;-74
2023/09/06 04:30:13;;;;;;;5.78;3.90;;;18.70;99.90;;;;;;5051199;28;20021;-75
2023/09/06 04:32:39;;;;;;;6.47;4.63;;;18.70;99.90;;;;;;5051232;28;20025;-75
2023/09/06 04:35:06;;;;;;;4.50;3.90;;;18.70;99.90;;;;;;5051482;28;20425;-74
2023/09/06 04:37:32;;;;;;;3.97;3.58;;;18.60;99.90;;;;;;5051074;28;20064;-74
2023/09/06 04:39:57;;;;;;;4.38;3.63;;;18.60;99.90;;;;;;5051781;28;20476;-74
2023/09/06 04:42:23;;;;;;;4.20;3.80;;;18.60;99.90;;;;;;5050922;28;20513;-75
2023/09/06 04:44:49;;;;;;;4.13;3.55;;;18.60;99.90;;;;;;5051136;28;20021;-74
2023/09/06 04:47:15;;;;;;;4.80;4.30;;;18.50;99.90;;;;;;5051123;28;20056;-75
2023/09/06 04:49:42;;;;;;;7.28;3.75;;;18.50;99.90;;;;;;5053759;28;20044;-74
2023/09/06 04:52:08;;;;;;;7.75;4.20;;;18.40;99.90;;;;;;5068868;28;20032;-74
2023/09/06 04:54:33;;;;;;;4.97;4.43;;;18.40;99.90;;;;;;5058878;28;20028;-74
2023/09/06 04:56:59;;;;;;;4.53;4.05;;;18.40;99.90;;;;;;5070593;28;20381;-75
2023/09/06 04:59:24;;;;;;;4.03;3.72;;;18.40;99.90;;;;;;5069182;28;20016;-74
2023/09/06 05:01:50;;;;;;;4.82;4.30;;;18.40;99.90;;;;;;5069972;28;20044;-74
2023/09/06 05:04:15;;;;;;;5.93;4.47;;;18.40;99.90;;;;;;5069245;28;20032;-74
2023/09/06 05:06:41;;;;;;;5.28;4.20;;;18.30;99.90;;;;;;5063767;28;20028;-75
2023/09/06 05:09:07;;;;;;;4.75;4.03;;;18.30;99.90;;;;;;5065569;28;20163;-74
2023/09/06 05:11:33;;;;;;;5.95;4.70;;;18.30;99.90;;;;;;5069799;28;20032;-75
2023/09/06 05:13:58;;;;;;;4.97;4.20;;;18.30;99.90;;;;;;5069525;28;20029;-75
2023/09/06 05:16:24;;;;;;;5.35;4.85;;;18.30;99.90;;;;;;5069386;28;20055;-75
2023/09/06 05:18:49;;;;;;;5.00;4.45;;;18.30;99.90;;;;;;5067368;28;20028;-75
2023/09/06 05:21:15;;;;;;;5.60;5.00;;;18.30;99.90;;;;;;5056178;28;20146;-75
2023/09/06 05:23:41;;;;;;;5.57;4.57;;;18.30;99.90;;;;;;5061788;28;20045;-75
2023/09/06 05:26:06;;;;;;;4.65;4.18;;;18.30;99.90;;;;;;5065715;28;20025;-75
2023/09/06 05:28:32;;;;;;;6.65;5.45;;;18.30;99.90;;;;;;5049729;28;20130;-75
2023/09/06 05:31:00;;;;;;;5.35;4.78;;;18.30;99.90;;;;;;5050362;28;20534;-76
2023/09/06 05:33:26;;;;;;;5.93;5.32;;;18.30;99.90;;;;;;5048120;28;20017;-75
2023/09/06 05:35:54;;;;;;;6.20;5.60;;;18.30;99.90;;;;;;5049663;28;20032;-75
2023/09/06 05:38:20;;;;;;;7.07;6.35;;;18.30;99.90;;;;;;5049328;28;20017;-75
2023/09/06 05:40:47;;;;;;;7.85;7.05;;;18.40;99.90;;;;;;5048574;28;20063;-75
2023/09/06 05:43:13;;;;;;;6.40;5.57;;;18.40;99.90;;;;;;5062675;28;20060;-74
2023/09/06 05:45:39;;;;;;;8.13;6.25;;;18.40;99.90;;;;;;5059598;28;20048;-74
2023/09/06 05:48:05;;;;;;;6.90;5.43;;;18.40;99.90;;;;;;5068903;28;20444;-74
2023/09/06 05:50:31;;;;;;;6.25;5.60;;;18.40;99.90;;;;;;5068565;28;20101;-74
2023/09/06 05:52:57;;;;;;;6.60;5.90;;;18.50;99.90;;;;;;5071564;28;20470;-74
2023/09/06 05:55:22;;;;;;;6.93;5.53;;;18.50;99.90;;;;;;5060429;28;20044;-74
2023/09/06 05:57:48;;;;;;;6.97;5.18;;;18.60;99.90;;;;;;5068603;28;20008;-75
2023/09/06 06:00:15;;;;;;;6.22;5.45;;;18.60;99.90;;;;;;5069086;28;20433;-75
2023/09/06 06:02:42;;;;;;;9.00;6.10;;;18.70;99.90;;;;;;5065911;28;20103;-74
2023/09/06 06:05:09;;;;;;;7.40;5.85;;;18.70;99.90;;;;;;5059012;28;20028;-74
2023/09/06 06:07:34;;;;;;;8.27;6.07;;;18.70;99.90;;;;;;5067958;28;20470;-75
2023/09/06 06:10:00;;;;;;;7.93;6.25;;;18.80;99.90;;;;;;5069098;28;20040;-75
2023/09/06 06:12:25;;;;;;;6.70;5.90;;;18.80;99.90;;;;;;5064157;28;20041;-74
2023/09/06 06:14:56;;;;;;;7.22;6.03;;;18.90;99.90;;;;;;5059369;28;20442;-74
2023/09/06 06:17:22;;;;;;;9.35;6.15;;;18.90;99.90;;;;;;5067139;28;20385;-74
2023/09/06 06:19:48;;;;;;;8.55;6.03;;;19.00;99.90;;;;;;5068241;28;20029;-74
2023/09/06 06:22:14;;;;;;;8.57;5.30;;;19.00;99.90;;;;;;5065406;28;20427;-75
2023/09/06 06:24:43;;;;;;;6.82;5.28;;;19.10;99.90;;;;;;5059540;28;20091;-74
2023/09/06 06:27:09;;;;;;;7.25;5.60;;;19.10;99.90;;;;;;5066590;28;20480;-74
2023/09/06 06:29:34;;;;;;;6.00;5.50;;;19.20;99.90;;;;;;5067941;28;20048;-74
2023/09/06 06:32:00;;;;;;;6.28;5.07;;;19.20;99.90;;;;;;5057949;28;20025;-79
2023/09/06 06:34:25;;;;;;;8.43;5.93;;;19.20;99.90;;;;;;5067924;28;20099;-76
2023/09/06 06:36:51;;;;;;;7.32;5.07;;;19.30;99.90;;;;;;5073038;28;20477;-79
2023/09/06 06:39:17;;;;;;;5.47;4.20;;;19.30;99.90;;;;;;5070159;28;20043;-79
2023/09/06 06:41:44;;;;;;;7.53;4.47;;;19.40;99.90;;;;;;5047595;28;20108;-79
2023/09/06 06:44:09;;;;;;;5.97;5.05;;;19.40;99.90;;;;;;5056692;28;20016;-79
2023/09/06 06:46:37;;;;;;;7.47;5.07;;;19.40;99.90;;;;;;5062498;28;20033;-79
2023/09/06 06:49:07;;;;;;;7.22;5.57;;;19.50;99.90;;;;;;5065667;28;20105;-79
2023/09/06 06:51:40;;;;;;;7.38;5.25;;;19.50;99.90;;;;;;5052688;28;20028;-79
2023/09/06 06:54:10;;;;;;;5.75;5.25;;;19.60;99.90;;;;;;5051921;28;20428;-79
2023/09/06 06:56:37;;;;;;;4.78;4.28;;;19.60;99.90;;;;;;5052340;28;20144;-79
2023/09/06 06:59:03;;;;;;;7.65;5.20;;;19.70;99.90;;;;;;5066319;28;20029;-79
2023/09/06 07:01:30;;;;;;;8.57;5.40;;;19.70;99.90;;;;;;5040696;28;20048;-79
2023/09/06 07:03:57;;;;;;;5.95;5.05;;;19.80;99.90;;;;;;5051312;28;20025;-80
2023/09/06 07:06:23;;;;;;;6.38;4.78;;;19.80;99.90;;;;;;5067275;28;20029;-80
2023/09/06 07:08:49;;;;;;;5.07;4.43;;;19.90;99.90;;;;;;5050938;28;20137;-81
2023/09/06 07:11:16;;;;;;;4.68;4.10;;;19.90;99.90;;;;;;5050562;28;20543;-81
2023/09/06 07:13:42;;;;;;;5.82;4.45;;;20.00;99.90;;;;;;5051547;28;20023;-81
2023/09/06 07:16:08;;;;;;;5.88;4.68;;;20.00;99.90;;;;;;5050732;28;20024;-80
2023/09/06 07:18:34;;;;;;;8.02;5.32;;;20.10;99.90;;;;;;5080243;28;20039;-80
2023/09/06 07:21:00;;;;;;;5.97;4.93;;;20.20;99.90;;;;;;5059412;28;20021;-80
2023/09/06 07:23:27;;;;;;;7.85;4.72;;;20.20;99.90;;;;;;5070059;28;20081;-80
2023/09/06 07:25:52;;;;;;;8.70;4.90;;;20.30;99.90;;;;;;5064369;28;20541;-81
2023/09/06 07:28:21;;;;;;;6.57;4.82;;;20.40;99.90;;;;;;5051409;28;20029;-80
2023/09/06 07:30:47;;;;;;;5.95;4.70;;;20.50;99.90;;;;;;5062745;28;20021;-79
2023/09/06 07:33:12;;;;;;;6.30;4.88;;;20.50;99.90;;;;;;5063865;28;20021;-79
2023/09/06 07:35:40;;;;;;;6.70;4.05;;;20.60;99.90;;;;;;5069872;28;20074;-79
2023/09/06 07:38:06;;;;;;;4.47;3.85;;;20.70;99.90;;;;;;5068208;28;20539;-78
2023/09/06 07:40:31;;;;;;;4.75;3.60;;;20.80;99.90;;;;;;5059316;28;20060;-79
2023/09/06 07:42:57;;;;;;;5.15;3.67;;;20.90;99.90;;;;;;5057738;28;20381;-78
2023/09/06 07:45:22;;;;;;;5.07;4.00;;;21.00;99.90;;;;;;5062776;28;20108;-78
2023/09/06 07:47:48;;;;;;;4.72;3.63;;;21.00;99.90;;;;;;5051956;28;20037;-78
2023/09/06 07:50:13;;;;;;;5.18;3.42;;;21.10;99.90;;;;;;5051447;28;20028;-79
2023/09/06 07:52:39;;;;;;;5.07;3.75;;;21.20;99.90;;;;;;5049912;28;20541;-78
2023/09/06 07:55:06;;;;;;;5.78;3.38;;;21.30;99.90;;;;;;5051956;28;20094;-78
2023/09/06 07:57:31;;;;;;;7.88;3.35;;;21.40;99.90;;;;;;5050403;28;20553;-78
2023/09/06 07:59:57;;;;;;;5.57;3.60;;;21.50;99.90;;;;;;5051551;28;20095;-79
2023/09/06 08:02:22;;;;;;;6.47;2.97;;;21.60;99.90;;;;;;5051914;28;20044;-78
2023/09/06 08:04:50;;;;;;;4.68;3.05;;;21.60;99.90;;;;;;5051997;28;20043;-79
2023/09/06 08:07:21;;;;;;;5.28;3.17;;;21.70;99.90;;;;;;5052190;28;20439;-78
2023/09/06 08:09:46;;;;;;;4.55;3.15;;;21.80;99.90;;;;;;5051492;28;20033;-79
2023/09/06 08:12:12;;;;;;;4.18;3.03;;;21.90;99.90;;;;;;5050363;28;20029;-78
2023/09/06 08:14:39;;;;;;;3.38;2.53;;;22.00;99.90;;;;;;5049116;28;20048;-79
2023/09/06 08:17:04;;;;;;;4.70;3.25;;;22.00;99.90;;;;;;5049333;28;20028;-79
2023/09/06 08:19:30;;;;;;;3.75;2.92;;;22.10;99.90;;;;;;5051699;28;20017;-79
2023/09/06 08:21:55;;;;;;;4.53;3.00;;;22.20;99.60;;;;;;5051473;28;20032;-80
2023/09/06 08:24:21;;;;;;;6.15;3.47;;;22.30;99.50;;;;;;5049618;28;20032;-80
2023/09/06 08:26:48;;;;;;;4.70;2.88;;;22.30;99.30;;;;;;5051155;28;20025;-82
2023/09/06 08:29:14;;;;;;;5.57;3.65;;;22.40;99.20;;;;;;5049436;28;20025;-80
2023/09/06 08:31:39;;;;;;;4.28;3.42;;;22.50;99.10;;;;;;5050976;28;20029;-80
2023/09/06 08:34:05;;;;;;;6.82;2.92;;;22.60;99.00;;;;;;5051220;28;20021;-80
2023/09/06 08:36:31;;;;;;;5.53;3.20;;;22.60;98.90;;;;;;5051287;28;20784;-79
2023/09/06 08:38:58;;;;;;;6.57;3.58;;;22.80;98.80;;;;;;5050178;28;20048;-80
2023/09/06 08:41:26;;;;;;;7.00;2.65;;;22.80;98.50;;;;;;5050663;28;20032;-79
2023/09/06 08:43:53;;;;;;;3.22;2.47;;;22.80;98.50;;;;;;5050418;28;20025;-79
2023/09/06 08:46:25;;;;;;;3.85;2.17;;;22.90;98.40;;;;;;5049904;28;20096;-79
2023/09/06 08:48:52;;;;;;;3.80;2.92;;;23.00;98.30;;;;;;5060138;28;20048;-79
2023/09/06 08:51:20;;;;;;;3.83;2.72;;;23.00;98.20;;;;;;5069664;28;20020;-79
2023/09/06 08:53:47;;;;;;;4.65;2.65;;;23.10;98.00;;;;;;5070244;28;20048;-80
2023/09/06 08:56:15;;;;;;;3.60;2.92;;;23.20;98.10;;;;;;5053328;28;20048;-79
2023/09/06 08:58:41;;;;;;;3.15;2.65;;;23.20;98.10;;;;;;5060584;28;20048;-80
2023/09/06 09:01:06;;;;;;;6.88;3.10;;;23.30;98.20;;;;;;5064805;28;20051;-80
2023/09/06 09:03:33;;;;;;;5.57;3.05;;;23.40;98.20;;;;;;5050473;28;20032;-79
2023/09/06 09:06:00;;;;;;;4.63;3.33;;;23.50;98.00;;;;;;5054006;28;20060;-80
2023/09/06 09:08:28;;;;;;;6.18;3.42;;;23.60;97.90;;;;;;5069760;28;20115;-80
2023/09/06 09:11:16;;;;;;;5.57;3.03;;;23.60;97.80;;;;;;5064959;28;20101;-79
2023/09/06 09:13:42;;;;;;;6.95;2.58;;;23.70;97.70;;;;;;5049599;28;20071;-79
2023/09/06 09:16:16;;;;;;;5.63;3.08;;;23.80;97.70;;;;;;5069535;28;20377;-79
2023/09/06 09:18:43;;;;;;;2.88;2.58;;;23.80;97.70;;;;;;5068586;28;20032;-80
2023/09/06 09:21:10;;;;;;;4.70;3.05;;;23.80;97.70;;;;;;5058536;28;20025;-79
2023/09/06 09:23:52;;;;;;;3.63;2.92;;;23.90;97.50;;;;;;5068108;28;20025;-80
2023/09/06 09:26:20;;;;;;;3.33;2.63;;;24.00;97.10;;;;;;5073574;28;20112;-79
2023/09/06 09:28:46;;;;;;;4.78;2.92;;;24.10;97.00;;;;;;5066896;28;20516;-80
2023/09/06 09:31:18;;;;;;;4.65;3.00;;;24.20;96.80;;;;;;5068727;28;20128;-80
2023/09/06 09:33:49;;;;;;;3.90;2.60;;;24.30;96.60;;;;;;5066168;28;20035;-79
2023/09/06 09:36:17;;;;;;;3.45;3.15;;;24.40;96.40;;;;;;5057363;28;20017;-79
2023/09/06 09:38:51;;;;;;;4.57;3.42;;;24.50;96.00;;;;;;5044045;28;20103;-80
2023/09/06 09:41:17;;;;;;;5.65;3.00;;;24.60;95.60;;;;;;5082087;28;20035;-80
2023/09/06 09:43:42;;;;;;;3.67;2.53;;;24.70;95.50;;;;;;5068631;28;20028;-79
2023/09/06 09:46:09;;;;;;;4.10;3.25;;;24.80;95.60;;;;;;5067555;28;20021;-79
2023/09/06 09:48:36;;;;;;;3.83;2.65;;;24.90;95.70;;;;;;5068858;28;20036;-80
2023/09/06 09:51:04;;;;;;;3.65;2.40;;;24.90;95.40;;;;;;5066377;28;20036;-79
2023/09/06 09:53:32;;;;;;;4.45;2.88;;;25.00;95.50;;;;;;5049911;28;20028;-79
2023/09/06 09:56:04;;;;;;;4.72;2.92;;;25.10;95.60;;;;;;5063174;28;20056;-80
2023/09/06 09:58:34;;;;;;;3.83;2.97;;;25.20;95.30;;;;;;5064269;28;20028;-80
2023/09/06 10:01:00;;;;;;;3.53;2.97;;;25.30;95.20;;;;;;5053864;28;20025;-79
2023/09/06 10:03:27;;;;;;;3.28;2.30;;;25.30;95.20;;;;;;5033213;28;20025;-80
2023/09/06 10:05:53;;;;;;;4.68;2.40;;;25.40;94.50;;;;;;5050562;28;20020;-80
2023/09/06 10:08:21;;;;;;;4.95;2.80;;;25.50;94.60;;;;;;5063101;28;20021;-79
2023/09/06 10:10:47;;;;;;;5.05;2.50;;;25.50;94.70;;;;;;5065423;28;20530;-80
2023/09/06 10:13:14;;;;;;;4.53;2.63;;;25.60;94.60;;;;;;5062548;28;20029;-80
2023/09/06 10:15:43;;;;;;;6.43;3.67;;;25.60;94.30;;;;;;5064764;28;20504;-80
2023/09/06 10:18:08;;;;;;;6.28;3.45;;;25.70;94.20;;;;;;5064659;28;20020;-80
2023/09/06 10:20:37;;;;;;;4.50;2.83;;;25.80;94.30;;;;;;5062311;28;20024;-81
2023/09/06 10:23:05;;;;;;;5.53;2.97;;;25.80;94.30;;;;;;5063688;28;20025;-80
2023/09/06 10:25:31;;;;;;;4.10;2.63;;;25.90;94.10;;;;;;5065207;28;20533;-80
2023/09/06 10:27:59;;;;;;;5.20;3.20;;;25.90;93.90;;;;;;5061764;28;20103;-80
2023/09/06 10:30:47;;;;;;;4.53;2.65;;;25.90;93.80;;;;;;5059454;28;20021;-80
2023/09/06 10:33:40;;;;;;;5.85;2.35;;;25.90;93.60;;;;;;5062100;28;20023;-80
2023/09/06 10:36:13;;;;;;;4.18;2.50;;;26.00;93.20;;;;;;5043085;28;20444;-80
2023/09/06 10:39:14;;;;;;;5.10;2.85;;;26.00;92.90;;;;;;5049605;28;20107;-81
2023/09/06 10:42:11;;;;;;;2.97;2.17;;;26.10;92.70;;;;;;5061475;28;20029;-81
2023/09/06 10:44:55;;;;;;;4.35;2.58;;;26.20;93.10;;;;;;5051845;28;20035;-80
2023/09/06 10:47:33;;;;;;;4.65;2.90;;;26.20;92.70;;;;;;5044540;28;20040;-80
2023/09/06 10:50:15;;;;;;;3.85;3.35;;;26.20;92.30;;;;;;5056284;28;20024;-80
2023/09/06 10:52:50;;;;;;;6.07;2.58;;;26.20;92.10;;;;;;5054266;28;20022;-80
2023/09/06 10:55:42;;;;;;;4.07;3.00;;;26.20;92.40;;;;;;5048650;28;20052;-80
2023/09/06 10:58:08;;;;;;;5.03;2.72;;;26.30;92.60;;;;;;5049242;28;20017;-80
2023/09/06 11:00:34;;;;;;;4.50;2.50;;;26.30;92.80;;;;;;5049194;28;20467;-81
2023/09/06 11:03:09;;;;;;;6.82;3.05;;;26.30;92.60;;;;;;5050163;28;20082;-80
2023/09/06 11:05:38;;;;;;;5.57;3.22;;;26.30;92.30;;;;;;5049239;28;20028;-79
2023/09/06 11:08:06;;;;;;;5.95;3.22;;;26.30;92.30;;;;;;5058106;28;20062;-81
2023/09/06 11:10:33;;;;;;;4.25;3.03;;;26.30;92.00;;;;;;5061648;28;20128;-79
2023/09/06 11:13:12;;;;;;;4.43;3.67;;;26.30;91.60;;;;;;5053638;28;20766;-80
2023/09/06 11:15:39;;;;;;;6.70;2.90;;;26.30;91.20;;;;;;5057734;28;20048;-80
2023/09/06 11:18:05;;;;;;;7.32;3.67;;;26.30;91.70;;;;;;5056495;28;20107;-79
2023/09/06 11:20:32;;;;;;;4.47;2.92;;;26.30;91.50;;;;;;5064823;28;20040;-80
2023/09/06 11:22:59;;;;;;;3.42;2.80;;;26.40;90.50;;;;;;5064942;28;20029;-82
2023/09/06 11:25:26;;;;;;;8.38;3.20;;;26.40;90.00;;;;;;5082544;28;20020;-81
2023/09/06 11:27:56;;;;;;;4.57;2.95;;;26.40;89.80;;;;;;5061207;28;20023;-82
2023/09/06 11:30:23;;;;;;;6.07;2.80;;;26.40;89.60;;;;;;5063598;28;20517;-81
2023/09/06 11:32:50;;;;;;;4.70;2.67;;;26.40;88.80;;;;;;5054375;28;20025;-85
2023/09/06 11:35:19;;;;;;;4.70;3.63;;;26.40;88.80;;;;;;5059384;28;20489;-84
2023/09/06 11:37:49;;;;;;;4.05;2.50;;;26.40;89.90;;;;;;5063155;28;20028;-81
2023/09/06 11:40:16;;;;;;;3.90;2.65;;;26.40;89.10;;;;;;5065598;28;20044;-81
2023/09/06 11:42:44;;;;;;;5.15;3.20;;;26.40;89.10;;;;;;5063445;28;20541;-81
2023/09/06 11:45:14;;;;;;;5.75;3.03;;;26.40;88.50;;;;;;5062873;28;20481;-80
2023/09/06 11:47:39;;;;;;;10.32;3.00;;;26.40;87.90;;;;;;5055221;28;20087;-80
2023/09/06 11:50:08;;;;;;;9.18;3.42;;;26.40;87.40;;;;;;5062388;28;20024;-81
2023/09/06 11:52:35;;;;;;;4.15;3.10;;;26.40;87.50;;;;;;5057231;28;20013;-80
2023/09/06 11:55:05;;;;;;;4.75;3.03;;;26.40;87.70;;;;;;5050783;28;20041;-80
2023/09/06 11:57:35;;;;;;;4.82;3.03;;;26.40;87.10;;;;;;5052830;28;20112;-80
2023/09/06 12:00:01;;;;;;;6.38;3.17;;;26.40;86.50;;;;;;5051058;28;20025;-81
2023/09/06 12:02:27;;;;;;;5.72;2.67;;;26.50;86.60;;;;;;5060280;28;20021;-81
2023/09/06 12:05:00;;;;;;;6.82;3.85;;;26.50;87.10;;;;;;5054531;28;20028;-80
2023/09/06 12:07:35;;;;;;;8.02;3.25;;;26.50;85.60;;;;;;5050955;28;20027;-80
2023/09/06 12:10:06;;;;;;;3.15;2.80;;;26.60;85.90;;;;;;5067108;28;20112;-82
2023/09/06 12:12:42;;;;;;;5.13;3.10;;;26.60;85.90;;;;;;5063071;28;20028;-80
2023/09/06 12:15:17;;;;;;;5.60;3.58;;;26.60;85.90;;;;;;5058738;28;20420;-80
2023/09/06 12:17:45;;;;;;;3.22;2.83;;;26.60;85.20;;;;;;5057005;28;20056;-81
2023/09/06 12:20:22;;;;;;;3.42;2.95;;;26.60;84.80;;;;;;5064850;28;20027;-83
2023/09/06 12:22:49;;;;;;;8.95;3.63;;;26.60;85.00;;;;;;5064435;28;20025;-77
2023/09/06 12:25:15;;;;;;;4.65;3.58;;;26.60;85.10;;;;;;5064541;28;20024;-80
2023/09/06 12:27:42;;;;;;;12.85;5.40;;;26.70;85.60;;;;;;5056353;28;20048;-80
2023/09/06 12:30:09;;;;;;;6.93;3.47;;;26.70;85.40;;;;;;5065995;28;20031;-80
2023/09/06 12:32:37;;;;;;;5.63;3.97;;;26.70;85.50;;;;;;5071242;28;20017;-86
2023/09/06 12:35:04;;;;;;;5.65;3.63;;;26.80;86.20;;;;;;5067268;28;20146;-81
2023/09/06 12:37:29;;;;;;;3.97;3.45;;;26.80;86.30;;;;;;5069464;28;20105;-80
2023/09/06 12:39:55;;;;;;;4.30;3.28;;;26.80;85.60;;;;;;5055614;28;20597;-81
2023/09/06 12:42:20;;;;;;;5.50;3.67;;;26.80;84.90;;;;;;5069541;28;20078;-80
2023/09/06 12:44:47;;;;;;;4.20;3.13;;;26.80;85.00;;;;;;5068807;28;20028;-81
2023/09/06 12:47:19;;;;;;;6.82;3.42;;;26.90;85.50;;;;;;5070118;28;20420;-80
2023/09/06 12:49:44;;;;;;;8.00;3.30;;;26.90;85.10;;;;;;5068135;28;20494;-80
2023/09/06 12:52:13;;;;;;;6.45;3.47;;;26.90;85.20;;;;;;5053580;28;20112;-80